sensor_id;sensor_type;location;lat;lon;timestamp;P1;durP1;ratioP1;P2;durP2;ratioP2
3587;SDS011;1808;53.596;9.972;2023-05-24T00:01:51;22.92;;;3.88;;
3587;SDS011;1808;53.596;9.972;2023-05-24T00:04:20;23.88;;;5.93;;
3587;SDS011;1808;53.596;9.972;2023-05-24T00:06:49;24.40;;;4.72;;
3587;SDS011;1808;53.596;9.972;2023-05-24T00:09:15;19.50;;;4.47;;
3587;SDS011;1808;53.596;9.972;2023-05-24T00:11:42;20.50;;;4.15;;
3587;SDS011;1808;53.596;9.972;2023-05-24T00:14:10;21.10;;;4.00;;
3587;SDS011;1808;53.596;9.972;2023-05-24T00:16:36;26.58;;;4.65;;
3587;SDS011;1808;53.596;9.972;2023-05-24T00:19:02;23.90;;;4.40;;
3587;SDS011;1808;53.596;9.972;2023-05-24T00:21:29;26.38;;;5.22;;
3587;SDS011;1808;53.596;9.972;2023-05-24T00:23:56;18.35;;;3.78;;
3587;SDS011;1808;53.596;9.972;2023-05-24T00:26:22;19.20;;;4.20;;
3587;SDS011;1808;53.596;9.972;2023-05-24T00:28:49;27.35;;;5.93;;
3587;SDS011;1808;53.596;9.972;2023-05-24T00:31:17;16.15;;;5.13;;
3587;SDS011;1808;53.596;9.972;2023-05-24T00:33:43;23.38;;;4.97;;
3587;SDS011;1808;53.596;9.972;2023-05-24T00:36:09;22.05;;;5.00;;
3587;SDS011;1808;53.596;9.972;2023-05-24T00:38:36;28.48;;;6.20;;
3587;SDS011;1808;53.596;9.972;2023-05-24T00:41:02;17.17;;;4.78;;
3587;SDS011;1808;53.596;9.972;2023-05-24T00:43:29;19.63;;;3.28;;
3587;SDS011;1808;53.596;9.972;2023-05-24T00:46:02;17.15;;;4.68;;
3587;SDS011;1808;53.596;9.972;2023-05-24T00:48:40;25.45;;;4.75;;
3587;SDS011;1808;53.596;9.972;2023-05-24T00:51:07;18.30;;;4.30;;
3587;SDS011;1808;53.596;9.972;2023-05-24T00:53:34;11.73;;;2.97;;
3587;SDS011;1808;53.596;9.972;2023-05-24T00:56:01;19.88;;;4.35;;
3587;SDS011;1808;53.596;9.972;2023-05-24T00:58:28;25.23;;;5.38;;
3587;SDS011;1808;53.596;9.972;2023-05-24T01:00:56;21.40;;;3.80;;
3587;SDS011;1808;53.596;9.972;2023-05-24T01:03:24;19.05;;;4.13;;
3587;SDS011;1808;53.596;9.972;2023-05-24T01:05:54;20.73;;;4.78;;
3587;SDS011;1808;53.596;9.972;2023-05-24T01:08:24;19.33;;;4.55;;
3587;SDS011;1808;53.596;9.972;2023-05-24T01:11:08;15.25;;;3.55;;
3587;SDS011;1808;53.596;9.972;2023-05-24T01:13:45;18.52;;;3.75;;
3587;SDS011;1808;53.596;9.972;2023-05-24T01:16:16;25.52;;;4.88;;
3587;SDS011;1808;53.596;9.972;2023-05-24T01:18:46;29.02;;;4.85;;
3587;SDS011;1808;53.596;9.972;2023-05-24T01:21:22;21.30;;;3.95;;
3587;SDS011;1808;53.596;9.972;2023-05-24T01:24:09;23.67;;;4.78;;
3587;SDS011;1808;53.596;9.972;2023-05-24T01:26:44;12.73;;;4.07;;
3587;SDS011;1808;53.596;9.972;2023-05-24T01:29:21;31.15;;;5.68;;
3587;SDS011;1808;53.596;9.972;2023-05-24T01:31:48;19.58;;;3.45;;
3587;SDS011;1808;53.596;9.972;2023-05-24T01:34:14;20.05;;;4.50;;
3587;SDS011;1808;53.596;9.972;2023-05-24T01:36:41;21.73;;;5.35;;
3587;SDS011;1808;53.596;9.972;2023-05-24T01:39:07;23.00;;;3.30;;
3587;SDS011;1808;53.596;9.972;2023-05-24T01:41:38;17.75;;;4.13;;
3587;SDS011;1808;53.596;9.972;2023-05-24T01:44:09;24.17;;;5.70;;
3587;SDS011;1808;53.596;9.972;2023-05-24T01:46:39;27.98;;;5.97;;
3587;SDS011;1808;53.596;9.972;2023-05-24T01:49:08;25.58;;;5.45;;
3587;SDS011;1808;53.596;9.972;2023-05-24T01:51:39;24.05;;;4.38;;
3587;SDS011;1808;53.596;9.972;2023-05-24T01:54:07;27.13;;;6.00;;
3587;SDS011;1808;53.596;9.972;2023-05-24T01:56:33;26.10;;;4.28;;
3587;SDS011;1808;53.596;9.972;2023-05-24T01:59:00;20.92;;;5.60;;
3587;SDS011;1808;53.596;9.972;2023-05-24T02:01:29;25.77;;;5.70;;
3587;SDS011;1808;53.596;9.972;2023-05-24T02:03:56;26.05;;;4.28;;
3587;SDS011;1808;53.596;9.972;2023-05-24T02:06:22;20.05;;;4.32;;
3587;SDS011;1808;53.596;9.972;2023-05-24T02:08:49;20.15;;;4.68;;
3587;SDS011;1808;53.596;9.972;2023-05-24T02:11:16;31.67;;;6.60;;
3587;SDS011;1808;53.596;9.972;2023-05-24T02:13:42;25.65;;;4.75;;
3587;SDS011;1808;53.596;9.972;2023-05-24T02:16:09;23.25;;;4.65;;
3587;SDS011;1808;53.596;9.972;2023-05-24T02:18:36;22.10;;;5.28;;
3587;SDS011;1808;53.596;9.972;2023-05-24T02:21:03;17.65;;;4.00;;
3587;SDS011;1808;53.596;9.972;2023-05-24T02:23:29;19.85;;;5.13;;
3587;SDS011;1808;53.596;9.972;2023-05-24T02:25:56;14.52;;;4.85;;
3587;SDS011;1808;53.596;9.972;2023-05-24T02:28:22;21.17;;;5.35;;
3587;SDS011;1808;53.596;9.972;2023-05-24T02:30:48;25.95;;;5.45;;
3587;SDS011;1808;53.596;9.972;2023-05-24T02:33:15;25.02;;;6.53;;
3587;SDS011;1808;53.596;9.972;2023-05-24T02:35:42;19.38;;;4.43;;
3587;SDS011;1808;53.596;9.972;2023-05-24T02:38:09;20.00;;;4.70;;
3587;SDS011;1808;53.596;9.972;2023-05-24T02:40:35;33.10;;;5.05;;
3587;SDS011;1808;53.596;9.972;2023-05-24T02:43:01;26.90;;;5.72;;
3587;SDS011;1808;53.596;9.972;2023-05-24T02:45:28;26.33;;;5.28;;
3587;SDS011;1808;53.596;9.972;2023-05-24T02:47:54;20.50;;;5.00;;
3587;SDS011;1808;53.596;9.972;2023-05-24T02:50:20;20.88;;;4.95;;
3587;SDS011;1808;53.596;9.972;2023-05-24T02:52:48;17.27;;;3.28;;
3587;SDS011;1808;53.596;9.972;2023-05-24T02:55:15;23.80;;;5.05;;
3587;SDS011;1808;53.596;9.972;2023-05-24T02:57:43;20.08;;;4.15;;
3587;SDS011;1808;53.596;9.972;2023-05-24T03:00:09;18.45;;;4.63;;
3587;SDS011;1808;53.596;9.972;2023-05-24T03:02:37;16.85;;;4.43;;
3587;SDS011;1808;53.596;9.972;2023-05-24T03:05:05;16.73;;;4.60;;
3587;SDS011;1808;53.596;9.972;2023-05-24T03:07:31;19.15;;;4.53;;
3587;SDS011;1808;53.596;9.972;2023-05-24T03:09:59;14.98;;;3.63;;
3587;SDS011;1808;53.596;9.972;2023-05-24T03:12:25;21.25;;;4.57;;
3587;SDS011;1808;53.596;9.972;2023-05-24T03:14:52;30.92;;;6.78;;
3587;SDS011;1808;53.596;9.972;2023-05-24T03:17:18;20.42;;;6.32;;
3587;SDS011;1808;53.596;9.972;2023-05-24T03:19:45;24.27;;;5.82;;
3587;SDS011;1808;53.596;9.972;2023-05-24T03:22:11;14.23;;;3.97;;
3587;SDS011;1808;53.596;9.972;2023-05-24T03:24:37;25.23;;;5.18;;
3587;SDS011;1808;53.596;9.972;2023-05-24T03:27:05;23.08;;;5.15;;
3587;SDS011;1808;53.596;9.972;2023-05-24T03:29:32;32.35;;;6.65;;
3587;SDS011;1808;53.596;9.972;2023-05-24T03:31:58;21.17;;;4.72;;
3587;SDS011;1808;53.596;9.972;2023-05-24T03:34:25;26.25;;;4.00;;
3587;SDS011;1808;53.596;9.972;2023-05-24T03:36:51;30.98;;;6.97;;
3587;SDS011;1808;53.596;9.972;2023-05-24T03:39:17;23.77;;;5.00;;
3587;SDS011;1808;53.596;9.972;2023-05-24T03:41:44;26.33;;;5.18;;
3587;SDS011;1808;53.596;9.972;2023-05-24T03:44:11;21.92;;;4.47;;
3587;SDS011;1808;53.596;9.972;2023-05-24T03:46:38;25.20;;;6.18;;
3587;SDS011;1808;53.596;9.972;2023-05-24T03:49:05;21.13;;;6.00;;
3587;SDS011;1808;53.596;9.972;2023-05-24T03:51:31;29.90;;;4.63;;
3587;SDS011;1808;53.596;9.972;2023-05-24T03:53:58;26.48;;;6.10;;
3587;SDS011;1808;53.596;9.972;2023-05-24T03:56:24;31.13;;;5.30;;
3587;SDS011;1808;53.596;9.972;2023-05-24T03:58:51;20.08;;;5.50;;
3587;SDS011;1808;53.596;9.972;2023-05-24T04:01:19;16.60;;;4.47;;
3587;SDS011;1808;53.596;9.972;2023-05-24T04:03:45;17.42;;;4.07;;
3587;SDS011;1808;53.596;9.972;2023-05-24T04:06:11;27.30;;;5.45;;
3587;SDS011;1808;53.596;9.972;2023-05-24T04:08:38;16.35;;;4.72;;
3587;SDS011;1808;53.596;9.972;2023-05-24T04:11:04;29.80;;;7.53;;
3587;SDS011;1808;53.596;9.972;2023-05-24T04:13:31;29.27;;;7.00;;
3587;SDS011;1808;53.596;9.972;2023-05-24T04:15:57;28.92;;;5.50;;
3587;SDS011;1808;53.596;9.972;2023-05-24T04:18:25;21.55;;;5.22;;
3587;SDS011;1808;53.596;9.972;2023-05-24T04:20:51;24.35;;;5.75;;
3587;SDS011;1808;53.596;9.972;2023-05-24T04:23:17;33.05;;;7.88;;
3587;SDS011;1808;53.596;9.972;2023-05-24T04:25:44;26.38;;;6.32;;
3587;SDS011;1808;53.596;9.972;2023-05-24T04:28:10;26.02;;;5.32;;
3587;SDS011;1808;53.596;9.972;2023-05-24T04:30:36;24.73;;;6.15;;
3587;SDS011;1808;53.596;9.972;2023-05-24T04:33:03;30.23;;;6.13;;
3587;SDS011;1808;53.596;9.972;2023-05-24T04:35:30;31.13;;;6.97;;
3587;SDS011;1808;53.596;9.972;2023-05-24T04:37:57;34.22;;;9.60;;
3587;SDS011;1808;53.596;9.972;2023-05-24T04:40:23;30.23;;;8.15;;
3587;SDS011;1808;53.596;9.972;2023-05-24T04:42:50;37.55;;;8.95;;
3587;SDS011;1808;53.596;9.972;2023-05-24T04:45:16;27.38;;;6.32;;
3587;SDS011;1808;53.596;9.972;2023-05-24T04:47:43;33.85;;;7.72;;
3587;SDS011;1808;53.596;9.972;2023-05-24T04:50:09;26.40;;;6.95;;
3587;SDS011;1808;53.596;9.972;2023-05-24T04:52:37;31.58;;;6.82;;
3587;SDS011;1808;53.596;9.972;2023-05-24T04:55:03;38.30;;;9.00;;
3587;SDS011;1808;53.596;9.972;2023-05-24T04:57:30;36.08;;;8.65;;
3587;SDS011;1808;53.596;9.972;2023-05-24T04:59:57;27.85;;;8.45;;
3587;SDS011;1808;53.596;9.972;2023-05-24T05:02:23;32.95;;;8.27;;
3587;SDS011;1808;53.596;9.972;2023-05-24T05:04:50;29.48;;;7.63;;
3587;SDS011;1808;53.596;9.972;2023-05-24T05:07:16;26.75;;;7.95;;
3587;SDS011;1808;53.596;9.972;2023-05-24T05:09:44;38.03;;;8.50;;
3587;SDS011;1808;53.596;9.972;2023-05-24T05:12:11;27.63;;;7.13;;
3587;SDS011;1808;53.596;9.972;2023-05-24T05:14:38;24.50;;;5.88;;
3587;SDS011;1808;53.596;9.972;2023-05-24T05:17:04;32.33;;;7.85;;
3587;SDS011;1808;53.596;9.972;2023-05-24T05:19:30;27.15;;;7.32;;
3587;SDS011;1808;53.596;9.972;2023-05-24T05:21:57;24.90;;;7.18;;
3587;SDS011;1808;53.596;9.972;2023-05-24T05:24:23;25.63;;;8.20;;
3587;SDS011;1808;53.596;9.972;2023-05-24T05:26:51;26.88;;;7.85;;
3587;SDS011;1808;53.596;9.972;2023-05-24T05:29:17;31.98;;;9.35;;
3587;SDS011;1808;53.596;9.972;2023-05-24T05:31:43;28.50;;;9.25;;
3587;SDS011;1808;53.596;9.972;2023-05-24T05:34:10;32.10;;;8.43;;
3587;SDS011;1808;53.596;9.972;2023-05-24T05:36:36;26.45;;;8.07;;
3587;SDS011;1808;53.596;9.972;2023-05-24T05:39:04;36.75;;;9.57;;
3587;SDS011;1808;53.596;9.972;2023-05-24T05:41:33;39.55;;;10.65;;
3587;SDS011;1808;53.596;9.972;2023-05-24T05:44:01;28.83;;;8.48;;
3587;SDS011;1808;53.596;9.972;2023-05-24T05:46:27;28.45;;;8.35;;
3587;SDS011;1808;53.596;9.972;2023-05-24T05:48:53;27.75;;;8.18;;
3587;SDS011;1808;53.596;9.972;2023-05-24T05:51:20;25.38;;;8.07;;
3587;SDS011;1808;53.596;9.972;2023-05-24T05:53:46;35.15;;;9.68;;
3587;SDS011;1808;53.596;9.972;2023-05-24T05:56:12;23.52;;;6.50;;
3587;SDS011;1808;53.596;9.972;2023-05-24T05:58:39;28.73;;;9.10;;
3587;SDS011;1808;53.596;9.972;2023-05-24T06:01:06;39.40;;;12.40;;
3587;SDS011;1808;53.596;9.972;2023-05-24T06:03:33;23.77;;;6.97;;
3587;SDS011;1808;53.596;9.972;2023-05-24T06:05:59;22.80;;;8.88;;
3587;SDS011;1808;53.596;9.972;2023-05-24T06:08:26;25.15;;;7.38;;
3587;SDS011;1808;53.596;9.972;2023-05-24T06:10:54;35.08;;;7.82;;
3587;SDS011;1808;53.596;9.972;2023-05-24T06:13:21;32.92;;;8.20;;
3587;SDS011;1808;53.596;9.972;2023-05-24T06:15:47;38.30;;;9.40;;
3587;SDS011;1808;53.596;9.972;2023-05-24T06:18:17;32.85;;;9.05;;
3587;SDS011;1808;53.596;9.972;2023-05-24T06:20:44;34.10;;;8.00;;
3587;SDS011;1808;53.596;9.972;2023-05-24T06:23:11;27.00;;;6.78;;
3587;SDS011;1808;53.596;9.972;2023-05-24T06:25:37;41.60;;;10.52;;
3587;SDS011;1808;53.596;9.972;2023-05-24T06:28:04;30.17;;;8.07;;
3587;SDS011;1808;53.596;9.972;2023-05-24T06:30:30;31.67;;;9.38;;
3587;SDS011;1808;53.596;9.972;2023-05-24T06:32:57;32.97;;;7.97;;
3587;SDS011;1808;53.596;9.972;2023-05-24T06:35:26;21.25;;;7.00;;
3587;SDS011;1808;53.596;9.972;2023-05-24T06:37:52;33.33;;;8.48;;
3587;SDS011;1808;53.596;9.972;2023-05-24T06:40:18;32.60;;;9.68;;
3587;SDS011;1808;53.596;9.972;2023-05-24T06:42:45;30.35;;;8.40;;
3587;SDS011;1808;53.596;9.972;2023-05-24T06:45:11;33.38;;;9.10;;
3587;SDS011;1808;53.596;9.972;2023-05-24T06:47:37;31.40;;;8.23;;
3587;SDS011;1808;53.596;9.972;2023-05-24T06:50:04;37.70;;;8.27;;
3587;SDS011;1808;53.596;9.972;2023-05-24T06:52:32;35.58;;;7.75;;
3587;SDS011;1808;53.596;9.972;2023-05-24T06:54:59;17.60;;;4.63;;
3587;SDS011;1808;53.596;9.972;2023-05-24T06:57:25;21.80;;;6.35;;
3587;SDS011;1808;53.596;9.972;2023-05-24T06:59:52;23.02;;;6.28;;
3587;SDS011;1808;53.596;9.972;2023-05-24T07:02:18;28.75;;;6.70;;
3587;SDS011;1808;53.596;9.972;2023-05-24T07:04:50;31.70;;;7.18;;
3587;SDS011;1808;53.596;9.972;2023-05-24T07:07:16;35.10;;;7.05;;
3587;SDS011;1808;53.596;9.972;2023-05-24T07:09:44;24.90;;;6.97;;
3587;SDS011;1808;53.596;9.972;2023-05-24T07:12:11;36.60;;;8.55;;
3587;SDS011;1808;53.596;9.972;2023-05-24T07:14:38;26.20;;;8.00;;
3587;SDS011;1808;53.596;9.972;2023-05-24T07:17:04;37.00;;;8.10;;
3587;SDS011;1808;53.596;9.972;2023-05-24T07:19:31;29.70;;;7.38;;
3587;SDS011;1808;53.596;9.972;2023-05-24T07:21:59;31.65;;;7.22;;
3587;SDS011;1808;53.596;9.972;2023-05-24T07:24:26;27.17;;;6.78;;
3587;SDS011;1808;53.596;9.972;2023-05-24T07:26:54;27.80;;;7.68;;
3587;SDS011;1808;53.596;9.972;2023-05-24T07:29:21;28.00;;;7.45;;
3587;SDS011;1808;53.596;9.972;2023-05-24T07:31:48;26.58;;;6.53;;
3587;SDS011;1808;53.596;9.972;2023-05-24T07:34:14;29.42;;;7.55;;
3587;SDS011;1808;53.596;9.972;2023-05-24T07:36:41;31.08;;;7.47;;
3587;SDS011;1808;53.596;9.972;2023-05-24T07:39:07;25.65;;;6.88;;
3587;SDS011;1808;53.596;9.972;2023-05-24T07:41:34;25.55;;;6.88;;
3587;SDS011;1808;53.596;9.972;2023-05-24T07:44:02;27.75;;;7.68;;
3587;SDS011;1808;53.596;9.972;2023-05-24T07:46:29;27.98;;;7.38;;
3587;SDS011;1808;53.596;9.972;2023-05-24T07:48:56;18.85;;;6.20;;
3587;SDS011;1808;53.596;9.972;2023-05-24T07:51:23;23.92;;;6.53;;
3587;SDS011;1808;53.596;9.972;2023-05-24T07:53:49;20.40;;;5.78;;
3587;SDS011;1808;53.596;9.972;2023-05-24T07:56:16;27.63;;;7.40;;
3587;SDS011;1808;53.596;9.972;2023-05-24T07:58:42;32.35;;;7.70;;
3587;SDS011;1808;53.596;9.972;2023-05-24T08:01:12;20.52;;;6.43;;
3587;SDS011;1808;53.596;9.972;2023-05-24T08:03:39;30.65;;;7.78;;
3587;SDS011;1808;53.596;9.972;2023-05-24T08:06:05;31.80;;;10.00;;
3587;SDS011;1808;53.596;9.972;2023-05-24T08:08:32;27.13;;;5.82;;
3587;SDS011;1808;53.596;9.972;2023-05-24T08:10:59;30.45;;;8.93;;
3587;SDS011;1808;53.596;9.972;2023-05-24T08:13:26;35.42;;;8.57;;
3587;SDS011;1808;53.596;9.972;2023-05-24T08:15:52;29.05;;;8.20;;
3587;SDS011;1808;53.596;9.972;2023-05-24T08:18:20;10.43;;;4.57;;
3587;SDS011;1808;53.596;9.972;2023-05-24T08:20:46;25.20;;;5.68;;
3587;SDS011;1808;53.596;9.972;2023-05-24T08:23:13;26.02;;;7.15;;
3587;SDS011;1808;53.596;9.972;2023-05-24T08:25:39;25.58;;;6.70;;
3587;SDS011;1808;53.596;9.972;2023-05-24T08:28:06;22.60;;;6.00;;
3587;SDS011;1808;53.596;9.972;2023-05-24T08:30:32;26.75;;;6.32;;
3587;SDS011;1808;53.596;9.972;2023-05-24T08:32:59;21.10;;;7.05;;
3587;SDS011;1808;53.596;9.972;2023-05-24T08:35:27;20.15;;;6.28;;
3587;SDS011;1808;53.596;9.972;2023-05-24T08:37:53;24.63;;;5.95;;
3587;SDS011;1808;53.596;9.972;2023-05-24T08:40:20;22.85;;;5.43;;
3587;SDS011;1808;53.596;9.972;2023-05-24T08:42:47;22.42;;;5.22;;
3587;SDS011;1808;53.596;9.972;2023-05-24T08:45:15;20.58;;;4.82;;
3587;SDS011;1808;53.596;9.972;2023-05-24T08:47:43;17.75;;;5.25;;
3587;SDS011;1808;53.596;9.972;2023-05-24T08:50:10;20.85;;;6.28;;
3587;SDS011;1808;53.596;9.972;2023-05-24T08:52:39;16.73;;;4.85;;
3587;SDS011;1808;53.596;9.972;2023-05-24T08:55:07;23.83;;;5.47;;
3587;SDS011;1808;53.596;9.972;2023-05-24T08:57:34;25.60;;;6.07;;
3587;SDS011;1808;53.596;9.972;2023-05-24T09:00:03;24.10;;;6.30;;
3587;SDS011;1808;53.596;9.972;2023-05-24T09:02:31;21.60;;;5.32;;
3587;SDS011;1808;53.596;9.972;2023-05-24T09:04:57;17.90;;;4.53;;
3587;SDS011;1808;53.596;9.972;2023-05-24T09:07:24;20.05;;;5.22;;
3587;SDS011;1808;53.596;9.972;2023-05-24T09:09:55;22.30;;;6.32;;
3587;SDS011;1808;53.596;9.972;2023-05-24T09:12:23;17.90;;;5.50;;
3587;SDS011;1808;53.596;9.972;2023-05-24T09:14:52;11.70;;;4.18;;
3587;SDS011;1808;53.596;9.972;2023-05-24T09:17:18;18.15;;;4.15;;
3587;SDS011;1808;53.596;9.972;2023-05-24T09:19:45;12.77;;;4.47;;
3587;SDS011;1808;53.596;9.972;2023-05-24T09:22:12;10.25;;;4.00;;
3587;SDS011;1808;53.596;9.972;2023-05-24T09:24:39;18.10;;;4.22;;
3587;SDS011;1808;53.596;9.972;2023-05-24T09:27:07;16.50;;;4.50;;
3587;SDS011;1808;53.596;9.972;2023-05-24T09:29:34;17.92;;;4.63;;
3587;SDS011;1808;53.596;9.972;2023-05-24T09:32:01;15.40;;;4.25;;
3587;SDS011;1808;53.596;9.972;2023-05-24T09:34:32;16.00;;;4.63;;
3587;SDS011;1808;53.596;9.972;2023-05-24T09:37:03;16.58;;;4.20;;
3587;SDS011;1808;53.596;9.972;2023-05-24T09:39:31;15.95;;;3.90;;
3587;SDS011;1808;53.596;9.972;2023-05-24T09:41:57;13.23;;;3.17;;
3587;SDS011;1808;53.596;9.972;2023-05-24T09:44:25;16.92;;;5.25;;
3587;SDS011;1808;53.596;9.972;2023-05-24T09:46:52;15.23;;;4.03;;
3587;SDS011;1808;53.596;9.972;2023-05-24T09:49:19;14.93;;;4.15;;
3587;SDS011;1808;53.596;9.972;2023-05-24T09:51:46;12.13;;;3.70;;
3587;SDS011;1808;53.596;9.972;2023-05-24T09:54:13;14.35;;;3.45;;
3587;SDS011;1808;53.596;9.972;2023-05-24T09:56:39;17.08;;;3.95;;
3587;SDS011;1808;53.596;9.972;2023-05-24T09:59:07;14.77;;;4.32;;
3587;SDS011;1808;53.596;9.972;2023-05-24T10:01:35;13.40;;;3.67;;
3587;SDS011;1808;53.596;9.972;2023-05-24T10:04:01;16.65;;;4.03;;
3587;SDS011;1808;53.596;9.972;2023-05-24T10:06:32;13.05;;;4.03;;
3587;SDS011;1808;53.596;9.972;2023-05-24T10:09:01;17.13;;;4.68;;
3587;SDS011;1808;53.596;9.972;2023-05-24T10:11:30;14.27;;;4.70;;
3587;SDS011;1808;53.596;9.972;2023-05-24T10:13:57;19.23;;;4.55;;
3587;SDS011;1808;53.596;9.972;2023-05-24T10:16:24;17.20;;;4.55;;
3587;SDS011;1808;53.596;9.972;2023-05-24T10:18:52;24.30;;;4.53;;
3587;SDS011;1808;53.596;9.972;2023-05-24T10:21:19;12.38;;;4.50;;
3587;SDS011;1808;53.596;9.972;2023-05-24T10:23:48;14.98;;;3.78;;
3587;SDS011;1808;53.596;9.972;2023-05-24T10:26:16;18.10;;;4.15;;
3587;SDS011;1808;53.596;9.972;2023-05-24T10:28:43;13.77;;;3.97;;
3587;SDS011;1808;53.596;9.972;2023-05-24T10:31:11;13.50;;;5.40;;
3587;SDS011;1808;53.596;9.972;2023-05-24T10:33:41;14.52;;;4.38;;
3587;SDS011;1808;53.596;9.972;2023-05-24T10:36:09;12.13;;;4.15;;
3587;SDS011;1808;53.596;9.972;2023-05-24T10:38:37;14.57;;;4.75;;
3587;SDS011;1808;53.596;9.972;2023-05-24T10:41:04;14.23;;;4.18;;
3587;SDS011;1808;53.596;9.972;2023-05-24T10:43:32;16.85;;;4.43;;
3587;SDS011;1808;53.596;9.972;2023-05-24T10:45:58;9.20;;;3.50;;
3587;SDS011;1808;53.596;9.972;2023-05-24T10:48:31;16.95;;;4.05;;
3587;SDS011;1808;53.596;9.972;2023-05-24T10:53:58;11.32;;;5.10;;
3587;SDS011;1808;53.596;9.972;2023-05-24T10:56:38;12.70;;;4.32;;
3587;SDS011;1808;53.596;9.972;2023-05-24T10:59:06;12.55;;;3.92;;
3587;SDS011;1808;53.596;9.972;2023-05-24T11:01:32;9.63;;;3.45;;
3587;SDS011;1808;53.596;9.972;2023-05-24T11:04:06;11.32;;;3.20;;
3587;SDS011;1808;53.596;9.972;2023-05-24T11:06:47;12.32;;;3.75;;
3587;SDS011;1808;53.596;9.972;2023-05-24T11:09:14;11.20;;;3.58;;
3587;SDS011;1808;53.596;9.972;2023-05-24T11:11:42;11.20;;;3.50;;
3587;SDS011;1808;53.596;9.972;2023-05-24T11:14:09;18.02;;;3.95;;
3587;SDS011;1808;53.596;9.972;2023-05-24T11:16:36;12.43;;;3.80;;
3587;SDS011;1808;53.596;9.972;2023-05-24T11:19:10;11.18;;;3.20;;
3587;SDS011;1808;53.596;9.972;2023-05-24T11:21:37;12.35;;;3.55;;
3587;SDS011;1808;53.596;9.972;2023-05-24T11:24:06;11.18;;;2.97;;
3587;SDS011;1808;53.596;9.972;2023-05-24T11:26:33;13.93;;;3.58;;
3587;SDS011;1808;53.596;9.972;2023-05-24T11:29:01;10.90;;;3.55;;
3587;SDS011;1808;53.596;9.972;2023-05-24T11:31:29;12.32;;;4.55;;
3587;SDS011;1808;53.596;9.972;2023-05-24T11:33:55;8.70;;;3.22;;
3587;SDS011;1808;53.596;9.972;2023-05-24T11:36:22;11.73;;;3.45;;
3587;SDS011;1808;53.596;9.972;2023-05-24T11:38:49;14.50;;;3.95;;
3587;SDS011;1808;53.596;9.972;2023-05-24T11:41:18;10.27;;;3.45;;
3587;SDS011;1808;53.596;9.972;2023-05-24T11:43:45;13.35;;;3.72;;
3587;SDS011;1808;53.596;9.972;2023-05-24T11:46:11;13.45;;;4.25;;
3587;SDS011;1808;53.596;9.972;2023-05-24T11:48:38;11.88;;;3.70;;
3587;SDS011;1808;53.596;9.972;2023-05-24T11:51:04;18.17;;;4.38;;
3587;SDS011;1808;53.596;9.972;2023-05-24T11:53:31;12.48;;;4.43;;
3587;SDS011;1808;53.596;9.972;2023-05-24T11:55:58;14.63;;;4.35;;
3587;SDS011;1808;53.596;9.972;2023-05-24T11:58:28;11.60;;;4.60;;
3587;SDS011;1808;53.596;9.972;2023-05-24T12:01:21;17.75;;;4.90;;
3587;SDS011;1808;53.596;9.972;2023-05-24T12:03:49;11.13;;;4.22;;
3587;SDS011;1808;53.596;9.972;2023-05-24T12:06:16;16.30;;;5.30;;
3587;SDS011;1808;53.596;9.972;2023-05-24T12:08:42;14.07;;;4.13;;
3587;SDS011;1808;53.596;9.972;2023-05-24T12:11:09;14.82;;;4.57;;
3587;SDS011;1808;53.596;9.972;2023-05-24T12:13:38;15.18;;;3.72;;
3587;SDS011;1808;53.596;9.972;2023-05-24T12:16:05;14.05;;;4.38;;
3587;SDS011;1808;53.596;9.972;2023-05-24T12:18:31;13.40;;;4.75;;
3587;SDS011;1808;53.596;9.972;2023-05-24T12:20:58;20.73;;;5.55;;
3587;SDS011;1808;53.596;9.972;2023-05-24T12:23:25;18.05;;;5.78;;
3587;SDS011;1808;53.596;9.972;2023-05-24T12:25:56;12.35;;;3.97;;
3587;SDS011;1808;53.596;9.972;2023-05-24T12:28:23;12.45;;;3.97;;
3587;SDS011;1808;53.596;9.972;2023-05-24T12:30:51;13.93;;;5.25;;
3587;SDS011;1808;53.596;9.972;2023-05-24T12:33:17;11.93;;;3.88;;
3587;SDS011;1808;53.596;9.972;2023-05-24T12:35:44;10.95;;;4.22;;
3587;SDS011;1808;53.596;9.972;2023-05-24T12:38:11;12.27;;;5.03;;
3587;SDS011;1808;53.596;9.972;2023-05-24T12:40:39;16.30;;;4.70;;
3587;SDS011;1808;53.596;9.972;2023-05-24T12:43:08;13.18;;;4.60;;
3587;SDS011;1808;53.596;9.972;2023-05-24T12:45:36;15.75;;;4.90;;
3587;SDS011;1808;53.596;9.972;2023-05-24T12:48:03;13.80;;;5.22;;
3587;SDS011;1808;53.596;9.972;2023-05-24T12:50:30;12.13;;;4.65;;
3587;SDS011;1808;53.596;9.972;2023-05-24T12:52:58;15.02;;;4.60;;
3587;SDS011;1808;53.596;9.972;2023-05-24T12:55:25;15.68;;;4.80;;
3587;SDS011;1808;53.596;9.972;2023-05-24T12:57:52;12.85;;;4.55;;
3587;SDS011;1808;53.596;9.972;2023-05-24T13:00:20;10.68;;;4.43;;
3587;SDS011;1808;53.596;9.972;2023-05-24T13:02:47;13.23;;;4.88;;
3587;SDS011;1808;53.596;9.972;2023-05-24T13:05:18;6.35;;;3.97;;
3587;SDS011;1808;53.596;9.972;2023-05-24T13:07:44;15.93;;;5.55;;
3587;SDS011;1808;53.596;9.972;2023-05-24T13:10:11;11.15;;;4.47;;
3587;SDS011;1808;53.596;9.972;2023-05-24T13:12:38;16.00;;;4.53;;
3587;SDS011;1808;53.596;9.972;2023-05-24T13:15:06;10.23;;;3.83;;
3587;SDS011;1808;53.596;9.972;2023-05-24T13:17:32;14.20;;;4.20;;
3587;SDS011;1808;53.596;9.972;2023-05-24T13:20:00;12.45;;;4.88;;
3587;SDS011;1808;53.596;9.972;2023-05-24T13:22:31;9.32;;;4.18;;
3587;SDS011;1808;53.596;9.972;2023-05-24T13:24:58;8.35;;;3.92;;
3587;SDS011;1808;53.596;9.972;2023-05-24T13:27:24;10.68;;;4.30;;
3587;SDS011;1808;53.596;9.972;2023-05-24T13:29:51;16.90;;;4.70;;
3587;SDS011;1808;53.596;9.972;2023-05-24T13:32:17;12.43;;;3.65;;
3587;SDS011;1808;53.596;9.972;2023-05-24T13:34:44;11.45;;;4.20;;
3587;SDS011;1808;53.596;9.972;2023-05-24T13:37:10;13.93;;;4.70;;
3587;SDS011;1808;53.596;9.972;2023-05-24T13:39:38;9.77;;;3.95;;
3587;SDS011;1808;53.596;9.972;2023-05-24T13:42:05;13.55;;;4.47;;
3587;SDS011;1808;53.596;9.972;2023-05-24T13:44:33;12.68;;;4.07;;
3587;SDS011;1808;53.596;9.972;2023-05-24T13:46:59;10.35;;;4.32;;
3587;SDS011;1808;53.596;9.972;2023-05-24T13:49:26;8.98;;;4.70;;
3587;SDS011;1808;53.596;9.972;2023-05-24T13:51:53;19.08;;;6.00;;
3587;SDS011;1808;53.596;9.972;2023-05-24T13:54:19;11.40;;;4.45;;
3587;SDS011;1808;53.596;9.972;2023-05-24T13:56:48;10.60;;;4.82;;
3587;SDS011;1808;53.596;9.972;2023-05-24T13:59:14;10.23;;;4.32;;
3587;SDS011;1808;53.596;9.972;2023-05-24T14:01:41;16.67;;;4.93;;
3587;SDS011;1808;53.596;9.972;2023-05-24T14:04:09;15.77;;;5.18;;
3587;SDS011;1808;53.596;9.972;2023-05-24T14:06:36;12.88;;;5.10;;
3587;SDS011;1808;53.596;9.972;2023-05-24T14:09:02;17.67;;;5.15;;
3587;SDS011;1808;53.596;9.972;2023-05-24T14:11:30;18.65;;;7.28;;
3587;SDS011;1808;53.596;9.972;2023-05-24T14:13:59;11.45;;;4.85;;
3587;SDS011;1808;53.596;9.972;2023-05-24T14:16:26;15.63;;;6.32;;
3587;SDS011;1808;53.596;9.972;2023-05-24T14:18:53;16.23;;;5.57;;
3587;SDS011;1808;53.596;9.972;2023-05-24T14:21:19;20.42;;;6.22;;
3587;SDS011;1808;53.596;9.972;2023-05-24T14:23:47;16.10;;;6.57;;
3587;SDS011;1808;53.596;9.972;2023-05-24T14:26:14;17.17;;;7.03;;
3587;SDS011;1808;53.596;9.972;2023-05-24T14:28:41;20.33;;;6.18;;
3587;SDS011;1808;53.596;9.972;2023-05-24T14:31:09;19.95;;;7.35;;
3587;SDS011;1808;53.596;9.972;2023-05-24T14:33:35;16.20;;;5.80;;
3587;SDS011;1808;53.596;9.972;2023-05-24T14:36:02;19.48;;;6.68;;
3587;SDS011;1808;53.596;9.972;2023-05-24T14:38:29;22.17;;;6.75;;
3587;SDS011;1808;53.596;9.972;2023-05-24T14:40:55;17.05;;;6.88;;
3587;SDS011;1808;53.596;9.972;2023-05-24T14:43:23;19.33;;;5.75;;
3587;SDS011;1808;53.596;9.972;2023-05-24T14:45:50;24.00;;;6.85;;
3587;SDS011;1808;53.596;9.972;2023-05-24T14:48:18;18.52;;;6.35;;
3587;SDS011;1808;53.596;9.972;2023-05-24T14:50:45;16.98;;;6.28;;
3587;SDS011;1808;53.596;9.972;2023-05-24T14:53:11;20.17;;;6.85;;
3587;SDS011;1808;53.596;9.972;2023-05-24T14:55:38;14.95;;;4.75;;
3587;SDS011;1808;53.596;9.972;2023-05-24T14:58:05;17.08;;;6.35;;
3587;SDS011;1808;53.596;9.972;2023-05-24T15:00:33;15.82;;;6.85;;
3587;SDS011;1808;53.596;9.972;2023-05-24T15:03:00;14.65;;;5.25;;
3587;SDS011;1808;53.596;9.972;2023-05-24T15:05:28;17.17;;;6.90;;
3587;SDS011;1808;53.596;9.972;2023-05-24T15:07:54;16.75;;;5.88;;